Time;durP1;ratioP1;P1;durP2;ratioP2;P2;SDS_P1;SDS_P2;PMS_P1;PMS_P2;Temp;Humidity;BMP_temperature;BMP_pressure;BME280_temperature;BME280_humidity;BME280_pressure;Samples;Min_cycle;Max_cycle;Signal;HPM_P1;HPM_P2
2023/06/20 00:00:35;;;;;;;7.60;5.33;;;;;;;17.15;100.00;100413.97;1495175;87;21366;-79
2023/06/20 00:03:03;;;;;;;7.17;4.90;;;;;;;17.13;100.00;100410.14;1461005;89;22283;-79
2023/06/20 00:05:30;;;;;;;5.90;4.90;;;;;;;17.12;100.00;100418.36;1459611;89;21344;-78
2023/06/20 00:07:57;;;;;;;11.53;5.27;;;;;;;17.10;100.00;100414.53;1434337;89;22279;-77
2023/06/20 00:10:24;;;;;;;8.30;5.57;;;;;;;17.06;100.00;100412.41;1452735;89;21419;-78
2023/06/20 00:12:52;;;;;;;8.07;5.40;;;;;;;17.04;100.00;100412.63;1430216;90;21522;-78
2023/06/20 00:15:25;;;;;;;7.57;5.53;;;;;;;17.02;100.00;100407.97;1451722;89;21393;-78
2023/06/20 00:17:48;;;;;;;6.67;5.33;;;;;;;16.97;100.00;100411.70;1451290;89;21551;-78
2023/06/20 00:20:15;;;;;;;8.33;5.40;;;;;;;16.93;100.00;100409.11;1443424;89;21589;-77
2023/06/20 00:22:43;;;;;;;8.60;5.20;;;;;;;16.88;100.00;100412.34;1439169;89;21582;-77
2023/06/20 00:25:10;;;;;;;7.37;5.47;;;;;;;16.83;100.00;100404.56;1428099;89;21369;-78
2023/06/20 00:27:38;;;;;;;9.80;5.63;;;;;;;16.75;100.00;100404.16;1465777;89;21420;-77
2023/06/20 00:30:08;;;;;;;7.13;5.00;;;;;;;16.74;100.00;100409.67;1459935;89;21338;-76
2023/06/20 00:32:35;;;;;;;6.70;6.10;;;;;;;16.71;100.00;100412.22;1496042;87;21374;-76
2023/06/20 00:35:02;;;;;;;10.20;5.47;;;;;;;16.65;100.00;100411.63;1492976;87;21322;-77
2023/06/20 00:37:30;;;;;;;9.13;6.50;;;;;;;16.61;100.00;100408.52;1489410;87;21322;-78
2023/06/20 00:39:57;;;;;;;6.67;6.00;;;;;;;16.61;100.00;100404.51;1492127;87;21351;-77
2023/06/20 00:42:24;;;;;;;10.00;4.93;;;;;;;16.62;100.00;100404.00;1412113;89;21352;-77
2023/06/20 00:44:52;;;;;;;6.90;5.53;;;;;;;16.60;100.00;100406.02;1452681;89;21980;-77
2023/06/20 00:47:20;;;;;;;15.40;5.30;;;;;;;16.55;100.00;100399.09;1446518;89;21374;-76
2023/06/20 00:49:49;;;;;;;14.33;5.57;;;;;;;16.51;100.00;100402.63;1446123;89;22203;-78
2023/06/20 00:52:20;;;;;;;7.43;5.20;;;;;;;16.49;100.00;100409.20;1476185;87;21368;-77
2023/06/20 00:54:48;;;;;;;5.17;4.67;;;;;;;16.48;100.00;100407.01;1448269;87;21351;-77
2023/06/20 00:57:19;;;;;;;7.30;5.27;;;;;;;16.44;100.00;100400.39;1469883;87;21374;-77
2023/06/20 00:59:50;;;;;;;8.47;5.90;;;;;;;16.41;100.00;100401.59;1478935;87;22283;-78
2023/06/20 01:02:17;;;;;;;10.33;5.13;;;;;;;16.41;100.00;100393.58;1456445;89;21352;-78
2023/06/20 01:04:47;;;;;;;6.23;5.60;;;;;;;16.39;100.00;100388.09;1479986;87;21345;-79
2023/06/20 01:07:29;;;;;;;8.80;5.43;;;;;;;16.36;100.00;100395.97;1480165;87;21918;-79
2023/06/20 01:10:04;;;;;;;14.90;5.67;;;;;;;16.32;100.00;100384.02;1449204;90;21489;-79
2023/06/20 01:12:47;;;;;;;7.23;6.00;;;;;;;16.33;100.00;100390.19;1456020;89;22732;-79
2023/06/20 01:15:43;;;;;;;5.03;4.53;;;;;;;16.33;100.00;100391.52;1446162;89;21565;-76
2023/06/20 01:18:44;;;;;;;8.50;4.07;;;;;;;16.28;100.00;100391.24;1417531;92;21685;-78
2023/06/20 01:21:14;;;;;;;;;;;;;;;16.18;100.00;100390.20;1419810;92;21538;-77
2023/06/20 01:24:10;;;;;;;6.33;4.42;;;;;;;16.06;100.00;100388.50;1420482;92;20312;-78
2023/06/20 01:26:55;;;;;;;9.23;4.77;;;;;;;15.99;100.00;100395.06;1405266;92;21701;-79
2023/06/20 01:29:34;;;;;;;5.97;4.50;;;;;;;15.96;100.00;100389.27;1391373;93;21530;-78
2023/06/20 01:32:07;;;;;;;9.27;4.93;;;;;;;15.92;100.00;100389.33;1442921;89;21456;-78
2023/06/20 01:34:39;;;;;;;7.33;5.17;;;;;;;15.89;100.00;100388.36;1497467;87;22291;-77
2023/06/20 01:37:09;;;;;;;6.00;5.37;;;;;;;15.87;100.00;100389.86;1449211;89;22397;-78
2023/06/20 01:39:54;;;;;;;10.07;5.17;;;;;;;15.87;100.00;100388.53;1434443;90;21522;-78
2023/06/20 01:42:25;;;;;;;6.60;4.67;;;;;;;15.88;100.00;100396.02;1430033;89;21967;-79
2023/06/20 01:44:53;;;;;;;;;;;;;;;15.87;100.00;100396.53;1454035;89;22257;-79
2023/06/20 01:47:24;;;;;;;6.93;5.43;;;;;;;15.88;100.00;100396.02;1470582;87;20894;-78
2023/06/20 01:49:52;;;;;;;;;;;;;;;15.90;100.00;100396.68;1452268;89;22032;-77
2023/06/20 01:52:20;;;;;;;9.10;5.73;;;;;;;15.91;100.00;100404.52;1457714;89;20386;-76
2023/06/20 01:54:51;;;;;;;7.37;5.30;;;;;;;15.88;100.00;100400.02;1456308;87;21462;-77
2023/06/20 01:57:19;;;;;;;8.48;5.20;;;;;;;15.83;100.00;100397.10;1469922;87;21444;-76
2023/06/20 01:59:47;;;;;;;11.73;5.33;;;;;;;15.78;100.00;100397.63;1490062;87;22327;-76
2023/06/20 02:02:15;;;;;;;7.60;5.57;;;;;;;15.74;100.00;100399.02;1495016;87;21506;-77
2023/06/20 02:04:45;;;;;;;9.17;5.37;;;;;;;15.68;100.00;100395.23;1452057;89;21904;-76
2023/06/20 02:07:14;;;;;;;7.28;5.95;;;;;;;15.64;100.00;100399.23;1461513;89;21455;-76
2023/06/20 02:09:44;;;;;;;11.87;6.37;;;;;;;15.63;100.00;100399.43;1496262;87;21844;-75
2023/06/20 02:12:14;;;;;;;10.03;6.33;;;;;;;15.60;100.00;100404.62;1448862;89;21388;-76
2023/06/20 02:14:42;;;;;;;7.63;6.10;;;;;;;15.53;100.00;100402.33;1487260;87;22138;-75
2023/06/20 02:17:12;;;;;;;8.80;6.87;;;;;;;15.53;100.00;100402.33;1487239;87;22094;-77
2023/06/20 02:19:39;;;;;;;7.25;6.53;;;;;;;15.61;100.00;100419.60;1436780;90;22476;-76
2023/06/20 02:22:10;;;;;;;11.60;7.90;;;;;;;15.61;100.00;100426.27;1456427;89;21359;-76
2023/06/20 02:24:38;;;;;;;9.77;6.73;;;;;;;15.60;100.00;100425.96;1454171;89;21474;-76
2023/06/20 02:27:07;;;;;;;12.40;7.37;;;;;;;15.63;100.00;100434.94;1431645;91;21382;-76
2023/06/20 02:29:38;;;;;;;11.17;7.23;;;;;;;15.64;100.00;100434.42;1441750;89;21382;-76
2023/06/20 02:32:07;;;;;;;7.28;6.45;;;;;;;15.64;100.00;100436.58;1446495;89;21360;-76
2023/06/20 02:34:37;;;;;;;11.63;6.60;;;;;;;15.69;100.00;100433.41;1441934;90;21285;-76
2023/06/20 02:37:06;;;;;;;8.38;6.60;;;;;;;15.76;100.00;100435.67;1438356;89;21547;-76
2023/06/20 02:39:33;;;;;;;10.20;6.83;;;;;;;15.79;100.00;100440.64;1474782;87;21308;-76
2023/06/20 02:42:00;;;;;;;8.80;7.00;;;;;;;15.80;100.00;100432.98;1465336;89;21515;-76
2023/06/20 02:44:27;;;;;;;10.87;7.90;;;;;;;15.75;100.00;100438.84;1500111;87;21366;-76
2023/06/20 02:47:18;;;;;;;8.50;7.10;;;;;;;15.73;100.00;100438.70;1472797;87;21454;-77
2023/06/20 02:50:09;;;;;;;8.33;7.35;;;;;;;15.69;100.00;100444.91;1471242;87;21310;-76
2023/06/20 02:52:50;;;;;;;9.50;8.23;;;;;;;15.68;100.00;100436.59;1443718;89;22327;-76
2023/06/20 02:55:35;;;;;;;9.60;7.13;;;;;;;15.68;100.00;100437.93;1461632;88;21426;-76
2023/06/20 02:58:11;;;;;;;12.87;7.53;;;;;;;15.66;100.00;100438.58;1444755;89;21503;-76
2023/06/20 03:00:48;;;;;;;9.43;6.77;;;;;;;15.67;100.00;100436.22;1476396;88;21347;-77
2023/06/20 03:03:30;;;;;;;11.13;7.33;;;;;;;15.68;100.00;100435.27;1475450;88;21376;-77
2023/06/20 03:05:58;;;;;;;10.70;7.80;;;;;;;15.69;100.00;100434.24;1475637;88;21551;-77
2023/06/20 03:08:28;;;;;;;9.10;6.57;;;;;;;15.72;100.00;100439.21;1438089;90;22372;-76
2023/06/20 03:10:59;;;;;;;7.50;6.62;;;;;;;15.78;100.00;100442.48;1477686;88;21492;-79
2023/06/20 03:13:27;;;;;;;9.07;6.50;;;;;;;15.85;100.00;100443.09;1453094;88;21544;-78
2023/06/20 03:15:55;;;;;;;8.03;7.23;;;;;;;15.88;100.00;100444.06;1478159;87;21329;-77
2023/06/20 03:18:22;;;;;;;8.23;7.07;;;;;;;15.87;100.00;100445.91;1477232;88;21374;-77
2023/06/20 03:20:49;;;;;;;10.30;7.77;;;;;;;15.89;100.00;100439.06;1471918;88;21344;-77
2023/06/20 03:23:17;;;;;;;7.63;6.40;;;;;;;15.93;100.00;100442.50;1483800;88;22365;-77
2023/06/20 03:25:45;;;;;;;15.17;7.67;;;;;;;16.01;100.00;100444.28;1477136;88;21566;-77
2023/06/20 03:28:12;;;;;;;8.73;7.57;;;;;;;16.04;100.00;100449.25;1442881;90;21458;-77
2023/06/20 03:30:40;;;;;;;13.23;7.47;;;;;;;16.07;100.00;100450.22;1441662;89;21584;-78
2023/06/20 03:33:07;;;;;;;13.10;7.70;;;;;;;16.08;100.00;100454.53;1494170;87;21359;-79
2023/06/20 03:35:34;;;;;;;10.03;7.20;;;;;;;16.10;100.00;100459.19;1469049;89;21448;-79
2023/06/20 03:38:02;;;;;;;10.70;7.17;;;;;;;16.15;100.00;100457.31;1494291;87;21455;-78
2023/06/20 03:40:29;;;;;;;17.93;7.87;;;;;;;16.20;100.00;100462.44;1439172;88;21882;-79
2023/06/20 03:42:57;;;;;;;11.80;7.67;;;;;;;16.28;100.00;100466.02;1443073;89;21497;-78
2023/06/20 03:45:24;;;;;;;7.80;6.27;;;;;;;16.33;100.00;100464.96;1447092;89;21945;-77
2023/06/20 03:47:51;;;;;;;12.53;7.63;;;;;;;16.39;100.00;100468.23;1460494;89;21374;-77
2023/06/20 03:50:19;;;;;;;18.43;8.10;;;;;;;16.39;100.00;100464.22;1493203;87;21410;-78
2023/06/20 03:52:46;;;;;;;13.80;7.80;;;;;;;16.43;100.00;100466.86;1421004;90;21592;-78
2023/06/20 03:55:13;;;;;;;13.63;7.27;;;;;;;16.49;100.00;100466.12;1453652;89;21241;-77
2023/06/20 03:57:41;;;;;;;8.57;6.70;;;;;;;16.57;100.00;100468.70;1457234;89;21344;-78
2023/06/20 04:00:11;;;;;;;10.30;6.87;;;;;;;16.64;100.00;100474.12;1452034;89;21573;-78
2023/06/20 04:02:42;;;;;;;;;;;;;;;16.68;100.00;100476.22;1473816;89;21432;-78
2023/06/20 04:05:10;;;;;;;8.80;7.80;;;;;;;16.74;100.00;100471.14;1465004;88;20320;-80
2023/06/20 04:07:42;;;;;;;12.30;7.67;;;;;;;16.82;100.00;100468.40;1421422;92;22572;-80
2023/06/20 04:10:09;;;;;;;15.60;7.12;;;;;;;16.91;100.00;100465.94;1450898;88;22410;-80
2023/06/20 04:12:38;;;;;;;12.93;8.10;;;;;;;16.97;100.00;100466.52;1416472;92;21478;-80
2023/06/20 04:15:06;;;;;;;9.97;7.33;;;;;;;17.07;100.00;100464.37;1449723;89;22424;-79
2023/06/20 04:17:33;;;;;;;11.50;7.47;;;;;;;17.12;100.00;100463.83;1429504;92;21511;-80
2023/06/20 04:20:04;;;;;;;13.50;6.90;;;;;;;17.18;100.00;100463.06;1448373;89;21374;-79
2023/06/20 04:22:30;;;;;;;14.50;7.50;;;;;;;17.30;100.00;100466.06;1425702;91;21470;-79
2023/06/20 04:24:58;;;;;;;10.00;7.93;;;;;;;17.40;100.00;100475.09;1455414;89;22445;-80
2023/06/20 04:27:25;;;;;;;15.60;7.03;;;;;;;17.50;100.00;100481.79;1428339;91;21404;-80
2023/06/20 04:29:52;;;;;;;10.73;6.77;;;;;;;17.62;100.00;100473.25;1419881;91;21526;-80
2023/06/20 04:32:19;;;;;;;8.97;7.50;;;;;;;17.72;100.00;100475.07;1454304;89;21360;-81
2023/06/20 04:34:46;;;;;;;11.40;6.83;;;;;;;17.83;100.00;100483.95;1407961;92;21419;-80
2023/06/20 04:37:17;;;;;;;10.45;7.45;;;;;;;17.93;100.00;100488.47;1457983;89;21558;-80
2023/06/20 04:39:44;;;;;;;14.00;7.87;;;;;;;18.08;100.00;100485.69;1418893;92;21463;-79
2023/06/20 04:42:11;;;;;;;11.17;7.67;;;;;;;18.24;100.00;100479.19;1461764;89;22298;-80
2023/06/20 04:44:38;;;;;;;10.47;7.60;;;;;;;18.37;100.00;100483.81;1418917;92;21368;-79
2023/06/20 04:47:06;;;;;;;11.73;7.30;;;;;;;18.47;100.00;100485.13;1452982;89;21411;-79
2023/06/20 04:49:33;;;;;;;11.30;8.37;;;;;;;18.55;100.00;100481.95;1416295;92;22811;-77
2023/06/20 04:52:00;;;;;;;11.80;7.83;;;;;;;18.59;100.00;100480.55;1418556;92;21964;-77
2023/06/20 04:54:29;;;;;;;10.20;7.40;;;;;;;18.66;100.00;100486.75;1452783;89;22218;-76
2023/06/20 04:56:56;;;;;;;9.65;6.87;;;;;;;18.77;100.00;100484.87;1429079;92;21471;-77
2023/06/20 04:59:23;;;;;;;9.73;7.12;;;;;;;18.91;100.00;100489.78;1420049;92;21331;-77
2023/06/20 05:01:51;;;;;;;12.47;7.80;;;;;;;18.98;100.00;100485.78;1456032;89;21375;-77
2023/06/20 05:04:19;;;;;;;8.80;7.40;;;;;;;19.04;99.27;100480.42;1418913;92;21560;-79
2023/06/20 05:06:46;;;;;;;12.95;7.17;;;;;;;19.07;97.66;100487.24;1452317;89;21415;-77
2023/06/20 05:09:13;;;;;;;10.95;8.73;;;;;;;19.12;98.06;100486.13;1416498;92;21287;-77
2023/06/20 05:11:41;;;;;;;9.83;6.97;;;;;;;19.28;98.71;100491.66;1453598;89;21861;-78
2023/06/20 05:14:08;;;;;;;7.40;6.30;;;;;;;19.41;97.90;100493.00;1422503;92;22350;-78
2023/06/20 05:16:35;;;;;;;8.50;7.10;;;;;;;19.43;95.69;100495.50;1460299;89;21367;-77
2023/06/20 05:19:02;;;;;;;9.20;7.80;;;;;;;19.46;95.31;100501.80;1455696;89;21330;-77
2023/06/20 05:21:29;;;;;;;11.30;7.10;;;;;;;19.54;96.05;100502.95;1413395;92;22226;-80
2023/06/20 05:23:57;;;;;;;9.85;6.42;;;;;;;19.66;95.58;100501.34;1449773;89;21412;-79
2023/06/20 05:26:24;;;;;;;9.53;6.70;;;;;;;19.76;95.59;100498.23;1408825;92;21493;-79
2023/06/20 05:28:51;;;;;;;12.15;6.33;;;;;;;19.83;94.32;100500.42;1456211;89;21404;-78
2023/06/20 05:31:19;;;;;;;19.42;6.20;;;;;;;19.97;94.53;100496.70;1424568;92;22312;-80
2023/06/20 05:33:47;;;;;;;11.55;7.72;;;;;;;20.09;93.17;100498.76;1462584;89;21515;-79
2023/06/20 05:36:14;;;;;;;12.37;6.67;;;;;;;20.15;92.90;100497.92;1421193;92;21339;-80
2023/06/20 05:38:41;;;;;;;10.53;7.45;;;;;;;20.23;92.86;100495.84;1459547;89;21323;-80
2023/06/20 05:41:10;;;;;;;8.98;6.80;;;;;;;20.36;92.33;100500.88;1426610;91;22379;-80
2023/06/20 05:43:37;;;;;;;51.40;8.10;;;;;;;20.53;92.69;100506.66;1463751;89;22328;-81
2023/06/20 05:46:04;;;;;;;18.45;8.55;;;;;;;20.71;92.78;100508.99;1424852;92;21375;-80
2023/06/20 05:48:33;;;;;;;9.73;6.92;;;;;;;20.81;91.38;100513.09;1452333;89;21440;-80
2023/06/20 05:51:02;;;;;;;11.53;7.12;;;;;;;20.80;89.13;100520.34;1421268;92;21500;-80
2023/06/20 05:53:30;;;;;;;13.00;7.75;;;;;;;20.88;90.10;100517.91;1432791;89;22417;-79
2023/06/20 05:56:05;;;;;;;11.55;8.08;;;;;;;20.91;89.22;100516.14;1423154;92;21383;-79
2023/06/20 05:58:32;;;;;;;13.32;7.05;;;;;;;21.02;90.11;100516.00;1416000;92;22409;-80
2023/06/20 06:01:01;;;;;;;13.75;6.37;;;;;;;21.22;90.43;100518.59;1422705;89;21463;-80
2023/06/20 06:03:30;;;;;;;11.18;6.90;;;;;;;21.38;90.21;100520.89;1423713;92;21396;-82
2023/06/20 06:05:57;;;;;;;6.45;5.70;;;;;;;21.56;90.10;100520.89;1383386;89;21257;-79
2023/06/20 06:08:25;;;;;;;11.30;6.62;;;;;;;21.75;90.00;100513.73;1421526;92;23361;-80
2023/06/20 06:10:52;;;;;;;13.95;7.15;;;;;;;21.92;89.26;100526.11;1457822;89;21374;-81
2023/06/20 06:13:19;;;;;;;11.45;6.97;;;;;;;22.06;88.63;100522.25;1419002;92;21323;-79
2023/06/20 06:15:46;;;;;;;8.88;6.37;;;;;;;22.14;87.36;100522.50;1448512;89;22231;-84
2023/06/20 06:18:14;;;;;;;7.65;5.85;;;;;;;22.16;85.50;100532.55;1420843;92;22499;-84
2023/06/20 06:20:43;;;;;;;11.00;6.70;;;;;;;22.19;85.99;100530.80;1452988;89;21368;-83
2023/06/20 06:23:10;;;;;;;7.55;6.20;;;;;;;22.35;86.37;100528.56;1422036;91;21456;-85
2023/06/20 06:25:37;;;;;;;10.75;7.37;;;;;;;22.50;85.82;100524.47;1456127;89;21412;-86
2023/06/20 06:28:04;;;;;;;7.12;5.42;;;;;;;22.66;85.52;100522.22;1423415;91;21642;-85
2023/06/20 06:30:35;;;;;;;12.23;8.17;;;;;;;22.73;84.55;100526.50;1463358;89;21426;-86
2023/06/20 06:33:02;;;;;;;;;;;;;;;22.79;84.76;100522.58;1422678;89;21390;-87
2023/06/20 06:35:30;;;;;;;9.43;5.70;;;;;;;22.84;84.32;100520.85;1441793;89;20263;-85
2023/06/20 06:37:58;;;;;;;7.05;5.85;;;;;;;22.98;84.23;100526.41;1416600;92;21741;-85
2023/06/20 06:40:26;;;;;;;8.65;5.83;;;;;;;23.15;84.04;100527.15;1456932;89;21427;-84
2023/06/20 06:42:53;;;;;;;14.13;6.00;;;;;;;23.27;83.18;100525.84;1425760;92;22270;-85
2023/06/20 06:49:22;;;;;;;6.08;4.83;;;;;;;23.56;82.46;100516.92;1425104;92;21354;-85
2023/06/20 06:51:50;;;;;;;21.80;6.62;;;;;;;23.77;81.78;100525.56;1453457;89;21382;-85
2023/06/20 06:54:17;;;;;;;5.67;4.72;;;;;;;23.71;79.13;100521.91;1418779;92;21626;-85
2023/06/20 06:56:44;;;;;;;6.33;5.30;;;;;;;23.81;79.68;100530.26;1453084;89;21573;-85
2023/06/20 06:59:11;;;;;;;8.43;5.80;;;;;;;23.91;79.56;100525.65;1418287;92;22315;-84
2023/06/20 07:01:39;;;;;;;13.72;5.67;;;;;;;23.96;78.53;100528.98;1452892;89;21449;-84
2023/06/20 07:04:06;;;;;;;12.70;6.42;;;;;;;23.99;78.38;100522.58;1428829;92;21396;-85
2023/06/20 07:06:34;;;;;;;7.50;4.72;;;;;;;24.06;78.24;100521.95;1449425;89;21831;-86
2023/06/20 07:09:01;;;;;;;8.13;5.35;;;;;;;24.17;78.82;100518.97;1457149;89;21396;-85
2023/06/20 07:11:28;;;;;;;5.20;4.53;;;;;;;24.30;77.00;100520.05;1423365;92;22328;-87
2023/06/20 07:13:55;;;;;;;6.70;5.33;;;;;;;24.38;77.79;100518.89;1456123;89;21412;-86
2023/06/20 07:16:25;;;;;;;5.35;4.58;;;;;;;24.37;76.08;100514.55;1425583;92;22299;-87
2023/06/20 07:18:52;;;;;;;8.88;4.67;;;;;;;24.45;75.51;100517.44;1452359;89;21425;-84
2023/06/20 07:21:19;;;;;;;6.83;5.03;;;;;;;24.55;75.86;100516.31;1426897;92;21530;-86
2023/06/20 07:23:46;;;;;;;9.48;4.92;;;;;;;24.69;75.71;100512.83;1459239;89;21382;-84
2023/06/20 07:26:13;;;;;;;7.12;4.50;;;;;;;24.87;75.62;100514.53;1419894;92;21322;-83
2023/06/20 07:28:40;;;;;;;12.23;4.60;;;;;;;25.01;74.71;100513.20;1432029;89;21411;-84
2023/06/20 07:31:07;;;;;;;6.40;4.50;;;;;;;25.18;74.34;100524.94;1417133;92;21397;-83
2023/06/20 07:33:35;;;;;;;7.40;4.25;;;;;;;25.35;73.68;100516.03;1457588;89;21426;-83
2023/06/20 07:36:02;;;;;;;6.12;3.42;;;;;;;25.52;72.87;100522.81;1418740;92;21486;-84
2023/06/20 07:38:29;;;;;;;5.95;3.90;;;;;;;25.64;70.12;100522.23;1456303;89;21322;-83
2023/06/20 07:40:57;;;;;;;8.43;4.22;;;;;;;25.69;69.65;100516.06;1423224;92;21921;-81
2023/06/20 07:43:24;;;;;;;5.90;3.80;;;;;;;25.80;69.60;100521.94;1451008;89;21502;-83
2023/06/20 07:45:52;;;;;;;13.40;4.00;;;;;;;25.91;69.43;100518.90;1420537;92;22421;-85
2023/06/20 07:48:19;;;;;;;6.03;4.55;;;;;;;25.94;67.29;100519.22;1456326;89;21440;-85
2023/06/20 07:50:46;;;;;;;7.92;4.22;;;;;;;26.04;68.70;100519.94;1421337;92;21630;-85
2023/06/20 07:53:13;;;;;;;6.17;4.42;;;;;;;26.15;68.25;100531.73;1458029;89;21462;-85
2023/06/20 07:55:41;;;;;;;9.83;4.10;;;;;;;26.22;65.68;100531.05;1423874;92;22210;-84
2023/06/20 07:58:08;;;;;;;11.18;4.00;;;;;;;26.30;66.32;100534.70;1450489;89;21307;-84
2023/06/20 08:00:35;;;;;;;7.40;4.25;;;;;;;26.47;66.29;100540.91;1419152;92;22349;-84
2023/06/20 08:03:02;;;;;;;6.92;3.90;;;;;;;26.65;65.92;100534.94;1454652;89;21611;-84
2023/06/20 08:05:29;;;;;;;6.05;4.20;;;;;;;26.81;65.40;100535.39;1452892;89;22431;-83
2023/06/20 08:07:57;;;;;;;8.43;3.95;;;;;;;26.95;65.35;100538.55;1399891;92;21441;-84
2023/06/20 08:10:24;;;;;;;4.65;3.75;;;;;;;27.07;63.77;100551.99;1422246;91;21434;-85
2023/06/20 08:12:52;;;;;;;13.72;3.77;;;;;;;26.94;62.80;100547.23;1450958;89;21470;-84
2023/06/20 08:15:19;;;;;;;6.17;3.58;;;;;;;26.99;64.68;100547.30;1425085;92;21537;-82
2023/06/20 08:17:47;;;;;;;7.53;3.30;;;;;;;27.06;64.01;100543.57;1449097;89;21552;-82
2023/06/20 08:20:14;;;;;;;8.73;4.22;;;;;;;27.07;64.23;100543.84;1417857;92;22351;-84
2023/06/20 08:22:41;;;;;;;6.17;4.05;;;;;;;27.21;64.31;100547.30;1455805;89;21515;-83
2023/06/20 08:25:09;;;;;;;8.25;3.87;;;;;;;27.23;62.19;100544.34;1420848;92;21871;-84
2023/06/20 08:27:36;;;;;;;9.20;3.90;;;;;;;27.11;60.88;100548.53;1452842;89;22000;-84
2023/06/20 08:30:04;;;;;;;4.95;3.47;;;;;;;27.19;62.64;100549.47;1411793;92;21449;-83
2023/06/20 08:32:32;;;;;;;6.03;3.37;;;;;;;27.34;63.03;100548.80;1458113;89;21433;-83
2023/06/20 08:34:59;;;;;;;6.53;3.98;;;;;;;27.32;60.78;100550.95;1421006;92;22469;-82
2023/06/20 08:37:26;;;;;;;4.05;3.60;;;;;;;27.41;62.01;100546.69;1455538;89;21374;-83
2023/06/20 08:40:03;;;;;;;5.83;3.90;;;;;;;27.48;60.59;100548.38;1414112;92;21870;-83
2023/06/20 08:50:16;;;;;;;5.25;3.50;;;;;;;27.82;57.44;100548.48;1371480;93;21546;-82
2023/06/20 08:52:47;;;;;;;9.35;4.45;;;;;;;27.93;57.02;100551.27;1367929;96;21677;-83
2023/06/20 08:55:16;;;;;;;9.00;3.80;;;;;;;28.03;56.13;100550.00;1364105;96;21627;-84
2023/06/20 08:57:46;;;;;;;9.98;6.42;;;;;;;28.20;56.23;100548.49;1371229;96;22374;-83
2023/06/20 09:00:20;;;;;;;10.10;4.83;;;;;;;28.32;55.70;100549.92;1440678;96;21399;-80
2023/06/20 09:02:51;;;;;;;7.05;4.37;;;;;;;28.46;55.90;100544.06;1336190;95;21671;-85
2023/06/20 09:05:19;;;;;;;9.20;4.12;;;;;;;28.66;56.08;100546.88;1369369;96;22571;-82
2023/06/20 09:07:47;;;;;;;5.40;3.50;;;;;;;28.77;51.81;100537.68;1369239;96;21480;-83
2023/06/20 09:10:23;;;;;;;3.40;3.10;;;;;;;28.90;51.61;100534.18;1367630;96;21480;-84
2023/06/20 09:12:53;;;;;;;3.98;3.55;;;;;;;29.00;50.96;100537.77;1363615;96;21865;-83
2023/06/20 09:15:27;;;;;;;6.40;3.30;;;;;;;29.04;50.29;100534.53;1300668;96;21251;-84
2023/06/20 09:17:59;;;;;;;7.30;3.87;;;;;;;29.09;50.32;100534.01;1424919;96;21295;-84
2023/06/20 09:20:29;;;;;;;7.70;4.20;;;;;;;29.21;50.31;100526.41;1421292;95;21487;-82
2023/06/20 09:22:58;;;;;;;7.25;3.35;;;;;;;29.36;49.79;100532.97;1396112;89;22029;-85
2023/06/20 09:25:29;;;;;;;5.00;3.65;;;;;;;29.46;50.07;100538.42;1420331;92;21427;-85
2023/06/20 09:27:57;;;;;;;7.83;3.35;;;;;;;29.53;48.75;100537.63;1377397;89;21577;-83
2023/06/20 09:30:30;;;;;;;4.20;3.47;;;;;;;29.55;48.57;100540.91;1339323;93;21242;-82
2023/06/20 09:33:03;;;;;;;4.95;3.70;;;;;;;29.53;42.34;100538.99;1538100;89;21235;-82
2023/06/20 09:35:31;;;;;;;5.00;3.55;;;;;;;29.57;42.17;100531.08;1495050;92;22166;-83
2023/06/20 09:38:04;;;;;;;4.20;3.47;;;;;;;29.57;40.63;100531.89;1380164;89;22099;-82
2023/06/20 09:40:34;;;;;;;4.92;3.77;;;;;;;29.46;40.92;100531.09;1500775;92;21191;-81
2023/06/20 09:43:01;;;;;;;4.72;3.90;;;;;;;29.26;38.28;100532.94;1344463;93;21345;-83
2023/06/20 09:45:28;;;;;;;5.47;3.83;;;;;;;29.17;40.50;100529.92;1351664;92;21287;-84
2023/06/20 09:47:57;;;;;;;23.32;4.45;;;;;;;29.22;41.39;100529.39;1381687;89;21343;-83
2023/06/20 09:50:27;;;;;;;4.15;3.40;;;;;;;29.33;41.60;100526.15;1354555;92;21441;-85
2023/06/20 09:53:23;;;;;;;4.55;4.12;;;;;;;29.59;41.67;100529.72;1370841;92;21563;-84
2023/06/20 09:55:52;;;;;;;11.48;3.77;;;;;;;29.76;41.09;100528.67;1426751;91;21470;-82
2023/06/20 09:58:21;;;;;;;6.80;4.40;;;;;;;29.93;41.36;100529.77;1453406;89;21514;-84
2023/06/20 10:00:51;;;;;;;5.35;3.85;;;;;;;30.07;39.23;100522.11;1418753;92;21419;-80
2023/06/20 10:03:20;;;;;;;;;;;;;;;30.09;40.70;100522.63;1454875;89;21433;-80
2023/06/20 10:05:47;;;;;;;5.47;3.75;;;;;;;30.00;40.44;100522.91;1363014;91;20844;-81
2023/06/20 10:08:17;;;;;;;6.67;4.08;;;;;;;30.16;40.87;100521.55;1339579;93;21338;-85
2023/06/20 10:10:44;;;;;;;3.58;3.27;;;;;;;30.34;41.16;100519.06;1379188;89;21272;-83
2023/06/20 10:13:12;;;;;;;4.20;3.65;;;;;;;30.27;39.87;100517.73;1351460;92;21279;-83
2023/06/20 10:15:40;;;;;;;5.87;3.45;;;;;;;30.19;39.09;100516.34;1381232;89;21397;-84
2023/06/20 10:18:30;;;;;;;6.92;3.90;;;;;;;30.20;40.13;100525.35;1338438;93;21448;-82
2023/06/20 10:21:00;;;;;;;5.05;3.77;;;;;;;30.02;38.89;100516.64;1351862;92;21522;-80
2023/06/20 10:23:37;;;;;;;6.12;4.05;;;;;;;30.05;39.44;100516.09;1537021;89;21323;-83
2023/06/20 10:26:08;;;;;;;5.03;3.50;;;;;;;30.03;38.98;100512.81;1491237;92;21361;-82
2023/06/20 10:28:39;;;;;;;9.45;3.37;;;;;;;29.83;37.73;100515.56;1509451;89;21486;-83
2023/06/20 10:31:06;;;;;;;6.47;3.70;;;;;;;29.82;38.90;100513.94;1377207;91;21256;-83
2023/06/20 10:33:39;;;;;;;5.50;3.65;;;;;;;29.71;38.03;100507.66;1355999;91;21475;-83
2023/06/20 10:36:12;;;;;;;3.42;3.12;;;;;;;29.73;38.33;100500.59;1538044;89;21206;-83
2023/06/20 10:38:57;;;;;;;7.45;3.98;;;;;;;29.93;39.26;100506.02;1505155;91;22056;-84
2023/06/20 10:41:27;;;;;;;4.12;3.50;;;;;;;29.95;38.41;100512.00;1537645;89;21448;-83
2023/06/20 10:44:00;;;;;;;4.40;3.47;;;;;;;29.95;37.58;100509.83;1349039;92;22169;-83
2023/06/20 10:46:48;;;;;;;3.92;3.52;;;;;;;29.94;37.68;100517.75;1538045;89;21272;-84
2023/06/20 10:49:15;;;;;;;3.70;3.35;;;;;;;30.18;38.55;100505.14;1500789;92;21280;-82
2023/06/20 10:51:53;;;;;;;4.70;3.42;;;;;;;30.48;38.52;100511.11;1438940;89;22246;-83
2023/06/20 10:54:21;;;;;;;4.28;3.62;;;;;;;30.39;36.53;100504.59;1455650;92;21368;-79
2023/06/20 10:56:48;;;;;;;4.15;3.50;;;;;;;30.38;37.67;100512.49;1380838;89;21241;-80
2023/06/20 11:01:38;;;;;;;4.28;3.50;;;;;;;30.54;37.77;100501.80;1503411;85;25843;-82
2023/06/20 11:04:11;;;;;;;5.67;3.77;;;;;;;30.44;37.07;100499.64;1484111;87;22357;-81
2023/06/20 11:06:40;;;;;;;6.28;3.77;;;;;;;30.41;37.51;100499.65;1500242;91;22246;-83
2023/06/20 11:09:18;;;;;;;6.85;4.05;;;;;;;30.45;37.83;100495.84;1505073;90;21386;-84
2023/06/20 11:11:44;;;;;;;4.65;3.20;;;;;;;30.42;37.29;100499.94;1488781;91;21304;-83
2023/06/20 11:14:24;;;;;;;4.67;4.12;;;;;;;30.37;36.86;100496.41;1373951;91;21338;-82
2023/06/20 11:16:56;;;;;;;6.15;3.87;;;;;;;30.22;36.72;100490.45;1363441;90;21361;-83
2023/06/20 11:19:26;;;;;;;4.05;3.65;;;;;;;30.38;37.28;100490.66;1509944;89;21517;-82
2023/06/20 11:21:54;;;;;;;8.00;3.92;;;;;;;30.42;36.64;100484.11;1537565;89;21449;-81
2023/06/20 11:24:22;;;;;;;5.30;3.60;;;;;;;30.41;37.24;100484.64;1379244;89;21361;-83
2023/06/20 11:26:48;;;;;;;4.37;3.75;;;;;;;30.20;37.31;100477.03;1371548;89;23184;-86
2023/06/20 11:29:16;;;;;;;5.28;3.98;;;;;;;30.27;37.32;100475.42;1522765;89;21429;-83
2023/06/20 11:31:43;;;;;;;5.28;4.53;;;;;;;30.19;35.62;100480.05;1363859;91;21391;-84
2023/06/20 11:34:11;;;;;;;3.55;3.25;;;;;;;30.06;36.32;100473.25;1363365;90;21435;-84
2023/06/20 11:36:40;;;;;;;3.70;3.30;;;;;;;30.20;35.85;100476.22;1373995;90;21382;-85
2023/06/20 11:39:09;;;;;;;4.47;3.70;;;;;;;30.35;37.31;100473.47;1373959;90;21659;-83
2023/06/20 11:41:36;;;;;;;6.67;4.33;;;;;;;30.58;37.87;100474.22;1528762;90;21419;-83
2023/06/20 11:44:04;;;;;;;7.15;3.22;;;;;;;30.82;35.97;100476.31;1374347;90;21673;-81
2023/06/20 11:46:31;;;;;;;13.83;5.00;;;;;;;30.78;36.52;100468.37;1372798;90;21466;-85